Alta, CA

8:14 PM PDT on August 28, 2014 (GMT -0700)
Casa Loma | Change Station
CLOSE
Current Station
Personal Weather Station
Location: Alta, CA
Elevation: 3700 ft
Nearby Weather Stations

Elev 3700 ft 39.20 °N, 120.80 °W | Updated 11 seconds ago

Clear
Clear
70.8 °F
Feels Like 77 °F
N
2.3
Wind Variable Wind from SE
Gusts 2.3 mph

Today
High -- | Low -- °F
--% Chance of Precip.
Yesterday
High -- | Low -- °F
Precip. -- in
6:28 AM 7:39 PM
Waxing Crescent, 11% visible
Pressure 29.94 in
Visibility 10.0 miles
Clouds Clear
Heat Index 77 °F
Dew Point 48 °F
Humidity 45%
Rainfall 0.00 in
Snow Depth Not available.
UV 0 out of 12
Pollen 8.50 out of 12
Ozone Unhealthy for Sensitive Groups
Flu Activity Not available.
METAR KBLU 290252Z AUTO 29003KT 10SM CLR 22/05 A3022 RMK AO2 SLP137 T02170050 55001

More Conditions Fewer Conditions

Pressure 29.94 in
Visibility 10.0 miles
Clouds Clear
Heat Index 77 °F
Dew Point 48 °F
Humidity 45%
Rainfall 0.00 in
Snow Depth Not available.
UV 0 out of 12
Pollen 8.50 out of 12
Ozone Unhealthy for Sensitive Groups
Flu Activity Not available.
METAR KBLU 290252Z AUTO 29003KT 10SM CLR 22/05 A3022 RMK AO2 SLP137 T02170050 55001

More Conditions Fewer Conditions

10-Day Weather Forecast

Almanac

Astronomy

Aug. 28, 2014 Rise Set
Actual Time 6:28 AM PDT 7:39 PM PDT
Civil Twilight 6:00 AM PDT 8:07 PM PDT
Nautical Twilight 5:27 AM PDT 8:40 PM PDT
Astronomical Twilight 4:52 AM PDT 9:14 PM PDT
Moon 9:24 AM PDT (8/28) 9:08 PM PDT (8/28)
Length of Visible Light 14h 06m
Length of Day
13h 11m
Tomorrow will be 2m 24s shorter.
Waxing Crescent, 11% of the Moon is Illuminated
Today
Waxing Crescent
Sep 2
First Quarter
Sep 8
Full
Sep 15
Last Quarter
Sep 24
New

Today's Extremes

State Highs State Lows

Community

WunderPhotos

Upload Photos

1,748,146 photos uploaded!

Nearby

Air Quality

  Air Quality AQ Index Pollutant
Yesterday Unhealthy for Sensitive Groups
OZONE
Current Unhealthy for Sensitive Groups
OZONE
Thursday Moderate
OZONE
Friday Moderate
OZONE
Saturday Moderate
OZONE

Snow Depth

Station Depth Elevation
Rubicon #2 0 in 7500 ft
Hagan's Meadow 0 in 8000 ft
Blue Lakes 0 in 8000 ft
Leavitt Meadows 1 in 7200 ft
Adin Mountain 0 in 6200 ft

Earthquake Activity

City Distance Mag. Time & Date
Napa, California 107 miles 2.6 11:57 AM PDT
2014-08-27
Napa, California 107 miles 2.5 10:56 AM PDT
2014-08-26
Napa, California 106 miles 3.0 6:45 AM PDT
2014-08-26
American Canyon, California 108 miles 2.8 6:12 AM PDT
2014-08-26
Minimum magnitude displayed is 2.5.

Coastal Water Temperatures

Place Temperature
No Stations Reporting

Nearby Weather Stations